Time;durP1;ratioP1;P1;durP2;ratioP2;P2;SDS_P1;SDS_P2;PMS_P1;PMS_P2;Temp;Humidity;BMP_temperature;BMP_pressure;BME280_temperature;BME280_humidity;BME280_pressure;Samples;Min_cycle;Max_cycle;Signal;HPM_P1;HPM_P2
2021/03/06 00:00:12;;;;;;;6.43;5.43;;;;;;;;;;5013884;28;20632;-76
2021/03/06 00:03:17;;;;;;;7.10;5.83;;;;;;;;;;5014106;28;20925;-76
2021/03/06 00:06:21;;;;;;;7.63;5.83;;;;;;;;;;5007691;28;20600;-75
2021/03/06 00:09:25;;;;;;;8.73;5.73;;;;;;;;;;5010459;28;21126;-75
2021/03/06 00:12:29;;;;;;;6.20;5.37;;;;;;;;;;5013211;28;20584;-76
2021/03/06 00:15:33;;;;;;;7.47;5.67;;;;;;;;;;5013743;28;20545;-76
2021/03/06 00:18:37;;;;;;;9.43;6.20;;;;;;;;;;4982455;28;20885;-76
2021/03/06 00:21:41;;;;;;;7.60;5.70;;;;;;;;;;4993976;28;20613;-76
2021/03/06 00:24:46;;;;;;;5.00;4.43;;;;;;;;;;4982138;28;20554;-76
2021/03/06 00:27:50;;;;;;;6.90;5.60;;;;;;;;;;5031905;28;20800;-75
2021/03/06 00:30:54;;;;;;;6.60;5.33;;;;;;;;;;5001210;28;21237;-75
2021/03/06 00:33:59;;;;;;;8.70;5.87;;;;;;;;;;5001541;28;20564;-76
2021/03/06 00:37:03;;;;;;;9.20;5.27;;;;;;;;;;5025840;28;20931;-76
2021/03/06 00:40:10;;;;;;;7.23;5.77;;;;;;;;;;5033188;28;20622;-75
2021/03/06 00:43:14;;;;;;;8.52;5.82;;;;;;;;;;5021265;28;20532;-76
2021/03/06 00:46:18;;;;;;;8.20;5.70;;;;;;;;;;5026562;28;20194;-75
2021/03/06 00:49:23;;;;;;;7.87;5.47;;;;;;;;;;5013454;28;20600;-75
2021/03/06 00:52:27;;;;;;;6.67;5.60;;;;;;;;;;5008348;28;20623;-76
2021/03/06 00:55:32;;;;;;;7.83;6.07;;;;;;;;;;5002977;28;20589;-75
2021/03/06 00:58:37;;;;;;;9.60;6.23;;;;;;;;;;5002874;28;20917;-75
2021/03/06 01:01:42;;;;;;;7.70;5.37;;;;;;;;;;4981616;28;20617;-76
2021/03/06 01:04:47;;;;;;;7.73;5.83;;;;;;;;;;5032190;28;20555;-75
2021/03/06 01:07:51;;;;;;;7.00;5.53;;;;;;;;;;5001968;28;20605;-76
2021/03/06 01:11:06;;;;;;;7.00;5.90;;;;;;;;;;5013113;28;20660;-75
2021/03/06 01:14:10;;;;;;;7.70;6.03;;;;;;;;;;5001090;28;20549;-75
2021/03/06 01:17:14;;;;;;;7.88;5.75;;;;;;;;;;5020335;28;20611;-75
2021/03/06 01:20:18;;;;;;;7.43;5.93;;;;;;;;;;5020609;28;20216;-75
2021/03/06 01:23:23;;;;;;;9.07;6.27;;;;;;;;;;5024425;28;20532;-75
2021/03/06 01:26:27;;;;;;;7.25;5.50;;;;;;;;;;5029534;28;20584;-75
2021/03/06 01:29:31;;;;;;;7.57;5.57;;;;;;;;;;5004848;28;20521;-75
2021/03/06 01:32:36;;;;;;;7.45;5.65;;;;;;;;;;5016912;28;20201;-75
2021/03/06 01:35:40;;;;;;;9.67;6.60;;;;;;;;;;5005175;28;20178;-75
2021/03/06 01:38:44;;;;;;;6.93;5.38;;;;;;;;;;5003755;28;20642;-75
2021/03/06 01:41:48;;;;;;;7.38;5.22;;;;;;;;;;5035813;28;20509;-75
2021/03/06 01:44:52;;;;;;;9.27;6.30;;;;;;;;;;5024327;28;20181;-75
2021/03/06 01:47:57;;;;;;;8.20;5.63;;;;;;;;;;5016851;28;20186;-75
2021/03/06 01:51:01;;;;;;;10.25;5.75;;;;;;;;;;5023678;28;20247;-75
2021/03/06 01:54:06;;;;;;;8.40;5.20;;;;;;;;;;5024109;28;20185;-75
2021/03/06 01:57:11;;;;;;;9.10;5.63;;;;;;;;;;5012072;28;20940;-77
2021/03/06 02:00:16;;;;;;;6.10;5.47;;;;;;;;;;5015445;28;20217;-75
2021/03/06 02:03:21;;;;;;;7.38;5.50;;;;;;;;;;5008036;28;20528;-77
2021/03/06 02:06:25;;;;;;;8.37;5.37;;;;;;;;;;4995285;28;20188;-76
2021/03/06 02:09:30;;;;;;;7.32;5.18;;;;;;;;;;5023681;28;20552;-76
2021/03/06 02:12:49;;;;;;;7.95;5.28;;;;;;;;;;5035895;28;20221;-76
2021/03/06 02:16:06;;;;;;;7.95;5.68;;;;;;;;;;4995175;28;20189;-76
2021/03/06 02:19:37;;;;;;;8.07;5.40;;;;;;;;;;5034858;28;20178;-77
2021/03/06 02:22:49;;;;;;;11.15;6.03;;;;;;;;;;5023771;28;20173;-76
2021/03/06 02:26:15;;;;;;;8.70;5.65;;;;;;;;;;5016082;28;20197;-76
2021/03/06 02:29:19;;;;;;;9.32;5.35;;;;;;;;;;5015976;28;20186;-76
2021/03/06 02:32:50;;;;;;;6.65;5.00;;;;;;;;;;4992314;28;20213;-76
2021/03/06 02:35:57;;;;;;;6.68;5.18;;;;;;;;;;5010616;28;20659;-76
2021/03/06 02:39:04;;;;;;;6.22;5.13;;;;;;;;;;5035235;28;20663;-76
2021/03/06 02:42:11;;;;;;;7.25;5.18;;;;;;;;;;5005406;28;20189;-76
2021/03/06 02:45:16;;;;;;;7.05;5.05;;;;;;;;;;5016989;28;20181;-76
2021/03/06 02:48:21;;;;;;;6.25;4.88;;;;;;;;;;5035348;28;20181;-77
2021/03/06 02:51:35;;;;;;;8.13;4.90;;;;;;;;;;5022356;28;20229;-76
2021/03/06 02:54:39;;;;;;;5.65;4.53;;;;;;;;;;5035242;28;20189;-76
2021/03/06 02:57:55;;;;;;;6.45;5.15;;;;;;;;;;4984079;28;20182;-76
2021/03/06 03:01:05;;;;;;;6.53;5.10;;;;;;;;;;4994624;28;20210;-76
2021/03/06 03:04:20;;;;;;;6.70;4.82;;;;;;;;;;5030452;28;20189;-76
2021/03/06 03:07:33;;;;;;;7.72;4.70;;;;;;;;;;5032439;28;20192;-76
2021/03/06 03:10:42;;;;;;;7.07;5.15;;;;;;;;;;4999615;28;20560;-76
2021/03/06 03:13:54;;;;;;;7.65;5.05;;;;;;;;;;5022722;28;20505;-76
2021/03/06 03:17:12;;;;;;;10.05;5.20;;;;;;;;;;5019484;28;20664;-76
2021/03/06 03:20:50;;;;;;;8.23;5.18;;;;;;;;;;5014113;28;20562;-76
2021/03/06 03:24:01;;;;;;;6.85;5.13;;;;;;;;;;5019611;28;20200;-76
2021/03/06 03:27:09;;;;;;;6.45;5.43;;;;;;;;;;5009214;28;20194;-76
2021/03/06 03:30:16;;;;;;;6.78;4.90;;;;;;;;;;5005499;28;20222;-76
2021/03/06 03:33:22;;;;;;;8.75;5.30;;;;;;;;;;5030583;28;20205;-76
2021/03/06 03:36:26;;;;;;;9.55;5.30;;;;;;;;;;5023802;28;20194;-76
2021/03/06 03:39:31;;;;;;;5.95;5.10;;;;;;;;;;4991189;28;20625;-76
2021/03/06 03:42:35;;;;;;;8.60;5.03;;;;;;;;;;5002463;28;20533;-76
2021/03/06 03:45:39;;;;;;;6.88;4.75;;;;;;;;;;5017480;28;20648;-76
2021/03/06 03:48:44;;;;;;;6.25;4.68;;;;;;;;;;5015458;28;20193;-76
2021/03/06 03:51:48;;;;;;;7.68;4.88;;;;;;;;;;5014338;28;20209;-76
2021/03/06 03:54:53;;;;;;;5.57;4.38;;;;;;;;;;5002024;28;20529;-76
2021/03/06 03:57:57;;;;;;;5.95;4.55;;;;;;;;;;4982699;28;20202;-76
2021/03/06 04:01:02;;;;;;;5.97;4.45;;;;;;;;;;4982385;28;20221;-76
2021/03/06 04:04:07;;;;;;;5.95;4.28;;;;;;;;;;5027374;28;20189;-76
2021/03/06 04:07:11;;;;;;;7.32;4.03;;;;;;;;;;4994428;28;20194;-76
2021/03/06 04:10:18;;;;;;;5.30;4.25;;;;;;;;;;5005243;28;20216;-76
2021/03/06 04:13:22;;;;;;;5.45;4.38;;;;;;;;;;5002196;28;20540;-76
2021/03/06 04:16:26;;;;;;;6.50;4.50;;;;;;;;;;5012266;28;20510;-76
2021/03/06 04:19:30;;;;;;;4.82;3.65;;;;;;;;;;4982260;28;20522;-76
2021/03/06 04:22:35;;;;;;;6.82;4.13;;;;;;;;;;4982054;28;20198;-76
2021/03/06 04:25:39;;;;;;;6.13;3.95;;;;;;;;;;4993942;28;20202;-77
2021/03/06 04:28:43;;;;;;;7.60;3.97;;;;;;;;;;4982303;28;20629;-76
2021/03/06 04:31:48;;;;;;;6.22;4.05;;;;;;;;;;5020223;28;20193;-77
2021/03/06 04:34:52;;;;;;;6.22;4.40;;;;;;;;;;5033200;28;20200;-77
2021/03/06 04:37:56;;;;;;;4.72;3.78;;;;;;;;;;5020947;28;20208;-77
2021/03/06 04:41:00;;;;;;;5.03;3.80;;;;;;;;;;5052188;22;20700;-70
2021/03/06 04:44:05;;;;;;;4.80;3.90;;;;;;;;;;5053280;28;20200;-70
2021/03/06 04:47:09;;;;;;;4.80;3.97;;;;;;;;;;5053279;28;20520;-70
2021/03/06 04:50:14;;;;;;;6.43;3.72;;;;;;;;;;5052832;28;20235;-70
2021/03/06 04:53:18;;;;;;;4.65;3.67;;;;;;;;;;5072884;28;20555;-70
2021/03/06 04:56:26;;;;;;;5.35;3.83;;;;;;;;;;5056570;28;20192;-70
2021/03/06 04:59:30;;;;;;;5.38;4.00;;;;;;;;;;5056886;28;20203;-70
2021/03/06 05:02:35;;;;;;;7.45;4.10;;;;;;;;;;5075693;28;20522;-70
2021/03/06 05:05:39;;;;;;;7.20;3.95;;;;;;;;;;5076491;28;20179;-70
2021/03/06 05:08:43;;;;;;;4.60;3.80;;;;;;;;;;5041369;28;20646;-70
2021/03/06 05:11:47;;;;;;;5.07;4.05;;;;;;;;;;5056776;28;20191;-70
2021/03/06 05:14:52;;;;;;;6.57;3.92;;;;;;;;;;5076811;28;20183;-70
2021/03/06 05:17:56;;;;;;;7.28;3.90;;;;;;;;;;5075117;28;20203;-70
2021/03/06 05:21:01;;;;;;;5.70;3.80;;;;;;;;;;5068103;28;20215;-70
2021/03/06 05:24:06;;;;;;;4.60;3.42;;;;;;;;;;5056030;28;20516;-70
2021/03/06 05:27:10;;;;;;;5.05;3.22;;;;;;;;;;5056896;28;20180;-70
2021/03/06 05:30:14;;;;;;;5.57;3.97;;;;;;;;;;5057217;28;20216;-70
2021/03/06 05:33:19;;;;;;;6.03;3.67;;;;;;;;;;5054172;28;20220;-70
2021/03/06 05:36:23;;;;;;;5.85;3.90;;;;;;;;;;5056550;28;20184;-70
2021/03/06 05:39:27;;;;;;;6.40;3.72;;;;;;;;;;5056449;28;20184;-70
2021/03/06 05:42:37;;;;;;;8.60;4.32;;;;;;;;;;5036397;28;20216;-70
2021/03/06 05:45:49;;;;;;;4.85;3.88;;;;;;;;;;5054361;28;20192;-70
2021/03/06 05:48:53;;;;;;;5.50;4.03;;;;;;;;;;5055422;28;20252;-70
2021/03/06 05:52:00;;;;;;;6.35;4.20;;;;;;;;;;5073215;28;20199;-70
2021/03/06 05:55:05;;;;;;;7.00;4.32;;;;;;;;;;5056002;28;20188;-70
2021/03/06 05:58:09;;;;;;;5.65;4.13;;;;;;;;;;5062294;28;20183;-70
2021/03/06 06:01:14;;;;;;;5.75;4.03;;;;;;;;;;5062127;28;20219;-70
2021/03/06 06:04:19;;;;;;;7.50;4.00;;;;;;;;;;5061495;28;20511;-70
2021/03/06 06:07:24;;;;;;;7.68;4.30;;;;;;;;;;5075738;28;20180;-70
2021/03/06 06:10:30;;;;;;;8.88;4.20;;;;;;;;;;5071311;28;20224;-70
2021/03/06 06:13:34;;;;;;;6.05;3.85;;;;;;;;;;5056047;28;20208;-70
2021/03/06 06:16:39;;;;;;;4.63;3.53;;;;;;;;;;5055584;28;20512;-70
2021/03/06 06:19:43;;;;;;;7.40;3.85;;;;;;;;;;5055535;28;20224;-70
2021/03/06 06:22:46;;;;;;;8.07;4.63;;;;;;;;;;5062028;28;20188;-70
2021/03/06 06:25:50;;;;;;;7.05;3.70;;;;;;;;;;5064618;28;20184;-70
2021/03/06 06:28:55;;;;;;;6.10;3.78;;;;;;;;;;5057287;28;20192;-70
2021/03/06 06:31:59;;;;;;;4.80;3.75;;;;;;;;;;5058192;28;20183;-70
2021/03/06 06:35:06;;;;;;;6.28;3.72;;;;;;;;;;5075214;28;20196;-70
2021/03/06 06:38:10;;;;;;;4.40;3.72;;;;;;;;;;5035559;28;20177;-70
2021/03/06 06:41:14;;;;;;;6.07;4.05;;;;;;;;;;5034512;28;20216;-70
2021/03/06 06:44:20;;;;;;;5.90;3.60;;;;;;;;;;5052305;28;20175;-70
2021/03/06 06:47:24;;;;;;;5.13;3.53;;;;;;;;;;5048188;28;20586;-70
2021/03/06 06:50:31;;;;;;;4.80;3.22;;;;;;;;;;5066040;28;20629;-70
2021/03/06 06:53:35;;;;;;;4.93;3.97;;;;;;;;;;5053274;28;20216;-70
2021/03/06 06:56:40;;;;;;;4.53;3.17;;;;;;;;;;5053782;28;20543;-70
2021/03/06 06:59:52;;;;;;;5.40;3.30;;;;;;;;;;5051930;28;20633;-70
2021/03/06 07:02:59;;;;;;;7.93;3.27;;;;;;;;;;5059710;28;20591;-70
2021/03/06 07:06:12;;;;;;;4.90;3.20;;;;;;;;;;5071538;28;20585;-70
2021/03/06 07:09:16;;;;;;;6.30;3.10;;;;;;;;;;5071186;28;20590;-70
2021/03/06 07:12:21;;;;;;;4.80;3.10;;;;;;;;;;5053826;28;20543;-70
2021/03/06 07:15:28;;;;;;;4.53;3.00;;;;;;;;;;5057191;28;20586;-70
2021/03/06 07:18:32;;;;;;;4.23;3.03;;;;;;;;;;5060534;28;20598;-70
2021/03/06 07:21:54;;;;;;;3.03;2.63;;;;;;;;;;5053120;28;20614;-70
2021/03/06 07:24:59;;;;;;;4.37;2.90;;;;;;;;;;5053742;28;20583;-70
2021/03/06 07:28:04;;;;;;;5.03;3.10;;;;;;;;;;5053368;28;20586;-70
2021/03/06 07:31:10;;;;;;;4.20;2.93;;;;;;;;;;5052371;28;20622;-70
2021/03/06 07:34:14;;;;;;;5.10;3.40;;;;;;;;;;5052783;28;20978;-70
2021/03/06 07:37:19;;;;;;;7.90;5.20;;;;;;;;;;5053437;28;20539;-69
2021/03/06 07:40:30;;;;;;;5.90;3.50;;;;;;;;;;5029128;28;552081;-70
2021/03/06 07:43:37;;;;;;;4.30;3.43;;;;;;;;;;5062269;28;20973;-70
2021/03/06 07:46:41;;;;;;;9.53;3.80;;;;;;;;;;5054157;28;20547;-70
2021/03/06 07:49:49;;;;;;;7.13;2.80;;;;;;;;;;5052942;28;20622;-70
2021/03/06 07:52:56;;;;;;;5.80;3.03;;;;;;;;;;5042707;28;20591;-69
2021/03/06 07:56:04;;;;;;;6.47;3.30;;;;;;;;;;5053220;28;20905;-69
2021/03/06 07:59:09;;;;;;;6.67;3.00;;;;;;;;;;5054977;28;20591;-69
2021/03/06 08:02:30;;;;;;;5.07;2.97;;;;;;;;;;5071858;28;20625;-71
2021/03/06 08:05:45;;;;;;;4.10;3.07;;;;;;;;;;5073849;28;20534;-70
2021/03/06 08:09:09;;;;;;;6.87;3.10;;;;;;;;;;5057498;28;20587;-70
2021/03/06 08:12:30;;;;;;;6.80;2.93;;;;;;;;;;5067899;28;20576;-70
2021/03/06 08:15:35;;;;;;;3.90;2.87;;;;;;;;;;5060792;28;20607;-70
2021/03/06 08:18:39;;;;;;;7.03;3.30;;;;;;;;;;5055968;28;20583;-70
2021/03/06 08:21:47;;;;;;;9.47;3.50;;;;;;;;;;5056991;28;21251;-70
2021/03/06 08:24:51;;;;;;;11.40;5.27;;;;;;;;;;5053642;28;20587;-70
2021/03/06 08:28:41;;;;;;;8.73;5.23;;;;;;;;;;5050520;28;20587;-70
2021/03/06 08:31:45;;;;;;;8.67;4.63;;;;;;;;;;5072959;28;20624;-71
2021/03/06 08:34:50;;;;;;;9.50;5.30;;;;;;;;;;5069730;28;20625;-70
2021/03/06 08:37:54;;;;;;;6.93;4.70;;;;;;;;;;5060678;28;21084;-71
2021/03/06 08:40:59;;;;;;;8.73;4.90;;;;;;;;;;5053153;28;20653;-71
2021/03/06 08:44:03;;;;;;;8.40;4.83;;;;;;;;;;5052873;28;20575;-70
2021/03/06 08:47:09;;;;;;;8.87;5.27;;;;;;;;;;5045926;28;20582;-70
2021/03/06 08:50:18;;;;;;;10.17;4.77;;;;;;;;;;5053117;28;20638;-71
2021/03/06 08:53:22;;;;;;;4.50;3.27;;;;;;;;;;5060509;28;20618;-71
2021/03/06 08:56:39;;;;;;;5.20;3.47;;;;;;;;;;5072812;28;20928;-71
2021/03/06 08:59:43;;;;;;;4.47;3.13;;;;;;;;;;5052291;28;20623;-70
2021/03/06 09:02:49;;;;;;;7.93;2.80;;;;;;;;;;5052857;28;20551;-70
2021/03/06 09:05:58;;;;;;;5.33;2.83;;;;;;;;;;5053130;28;20539;-70
2021/03/06 09:09:08;;;;;;;4.07;2.83;;;;;;;;;;5056258;28;20609;-70
2021/03/06 09:12:13;;;;;;;4.03;3.00;;;;;;;;;;5072766;28;20589;-70
2021/03/06 09:15:40;;;;;;;4.73;2.77;;;;;;;;;;5073007;28;20585;-70
2021/03/06 09:18:44;;;;;;;3.80;2.73;;;;;;;;;;5072193;28;20550;-70
2021/03/06 09:21:59;;;;;;;4.00;2.80;;;;;;;;;;5073306;28;20542;-70
2021/03/06 09:25:03;;;;;;;4.80;2.70;;;;;;;;;;5071946;28;20914;-70
2021/03/06 09:28:11;;;;;;;5.57;2.43;;;;;;;;;;5064217;28;20577;-70
2021/03/06 09:31:17;;;;;;;4.00;2.60;;;;;;;;;;5071426;28;20637;-70
2021/03/06 09:34:27;;;;;;;4.40;2.77;;;;;;;;;;5072234;28;20617;-71
2021/03/06 09:37:31;;;;;;;4.83;2.83;;;;;;;;;;5062449;28;20910;-71
2021/03/06 09:40:45;;;;;;;4.03;2.60;;;;;;;;;;5071737;28;20641;-71
2021/03/06 09:43:55;;;;;;;3.67;2.43;;;;;;;;;;5074778;28;20550;-70
2021/03/06 09:47:00;;;;;;;4.70;2.17;;;;;;;;;;5072617;28;21144;-70
2021/03/06 09:50:05;;;;;;;4.73;2.30;;;;;;;;;;5065791;28;20646;-70
2021/03/06 09:53:29;;;;;;;3.97;2.70;;;;;;;;;;5057220;28;20590;-71
2021/03/06 09:56:33;;;;;;;4.03;2.43;;;;;;;;;;5059001;28;20586;-71
2021/03/06 09:59:39;;;;;;;2.97;2.10;;;;;;;;;;5069531;28;20586;-71
2021/03/06 10:02:51;;;;;;;2.87;2.20;;;;;;;;;;5055911;28;20539;-71
2021/03/06 10:05:57;;;;;;;3.60;2.40;;;;;;;;;;5073192;28;20578;-71
2021/03/06 10:09:07;;;;;;;3.63;2.40;;;;;;;;;;5065954;28;20594;-71
2021/03/06 10:12:15;;;;;;;4.47;2.27;;;;;;;;;;5056716;28;21160;-71
2021/03/06 10:15:19;;;;;;;3.57;2.20;;;;;;;;;;5053459;28;20637;-71
2021/03/06 10:18:23;;;;;;;3.03;2.33;;;;;;;;;;5065567;28;21174;-70
2021/03/06 10:21:27;;;;;;;6.03;2.63;;;;;;;;;;5075228;28;20633;-71
2021/03/06 10:24:57;;;;;;;2.80;2.27;;;;;;;;;;5069068;28;20913;-71
2021/03/06 10:28:09;;;;;;;4.90;2.63;;;;;;;;;;5061595;28;20929;-70
2021/03/06 10:31:37;;;;;;;4.30;2.77;;;;;;;;;;5033961;28;20626;-71
2021/03/06 10:34:44;;;;;;;4.33;2.80;;;;;;;;;;5045718;28;21191;-71
2021/03/06 10:37:52;;;;;;;4.60;2.90;;;;;;;;;;5061722;28;20590;-71
2021/03/06 10:41:01;;;;;;;4.93;2.57;;;;;;;;;;5075245;28;20645;-71
2021/03/06 10:44:05;;;;;;;3.63;2.67;;;;;;;;;;5085664;22;20724;-74
2021/03/06 10:47:10;;;;;;;2.80;2.50;;;;;;;;;;5069807;28;20589;-73
2021/03/06 10:50:26;;;;;;;4.57;3.30;;;;;;;;;;5071639;28;20999;-74
2021/03/06 10:53:31;;;;;;;3.73;2.90;;;;;;;;;;5093516;28;20905;-74
2021/03/06 10:56:36;;;;;;;4.27;2.57;;;;;;;;;;5073257;28;20590;-74
2021/03/06 10:59:40;;;;;;;4.50;2.80;;;;;;;;;;5066825;28;20586;-74
2021/03/06 11:02:55;;;;;;;2.77;2.50;;;;;;;;;;5051111;28;20593;-74
2021/03/06 11:05:59;;;;;;;6.00;3.00;;;;;;;;;;5062327;28;20589;-73
2021/03/06 11:09:04;;;;;;;3.97;3.00;;;;;;;;;;5062326;28;20585;-74
2021/03/06 11:12:17;;;;;;;3.53;2.70;;;;;;;;;;5053767;28;21167;-74
2021/03/06 11:15:26;;;;;;;5.00;3.17;;;;;;;;;;5071134;28;20625;-74
2021/03/06 11:18:31;;;;;;;3.37;2.70;;;;;;;;;;5074477;28;20901;-73
2021/03/06 11:21:35;;;;;;;3.60;2.90;;;;;;;;;;5074418;28;20613;-74
2021/03/06 11:24:39;;;;;;;28.07;3.10;;;;;;;;;;5073767;28;20948;-74
2021/03/06 11:27:50;;;;;;;4.30;3.00;;;;;;;;;;5074581;28;20581;-74
2021/03/06 11:30:55;;;;;;;5.53;3.50;;;;;;;;;;5073260;28;20657;-74
2021/03/06 11:33:59;;;;;;;3.50;2.87;;;;;;;;;;5061731;28;20582;-74
2021/03/06 11:37:04;;;;;;;4.10;2.40;;;;;;;;;;5062166;28;20534;-75
2021/03/06 11:40:10;;;;;;;4.37;2.40;;;;;;;;;;5073581;28;20645;-74
2021/03/06 11:43:15;;;;;;;4.10;2.40;;;;;;;;;;5073947;28;21127;-74
2021/03/06 11:46:19;;;;;;;2.83;2.23;;;;;;;;;;5061614;28;20578;-74
2021/03/06 11:49:23;;;;;;;3.77;2.43;;;;;;;;;;5067241;28;20582;-75
2021/03/06 11:52:28;;;;;;;3.37;2.40;;;;;;;;;;5073292;28;20609;-74
2021/03/06 11:55:32;;;;;;;4.10;2.93;;;;;;;;;;5074445;28;20598;-74
2021/03/06 11:58:37;;;;;;;3.50;2.50;;;;;;;;;;5074550;28;21076;-73
2021/03/06 12:01:41;;;;;;;3.73;2.80;;;;;;;;;;5061199;28;20620;-74
2021/03/06 12:04:45;;;;;;;3.33;2.50;;;;;;;;;;5061169;28;20591;-73
2021/03/06 12:07:52;;;;;;;7.33;2.70;;;;;;;;;;5073775;28;20546;-74
2021/03/06 12:10:56;;;;;;;4.60;2.60;;;;;;;;;;5061119;28;20621;-74
2021/03/06 12:14:00;;;;;;;3.90;3.10;;;;;;;;;;5071400;28;20617;-74
2021/03/06 12:17:04;;;;;;;4.93;2.50;;;;;;;;;;5071921;28;20602;-73
2021/03/06 12:20:10;;;;;;;3.63;2.67;;;;;;;;;;5067814;28;20641;-73
2021/03/06 12:23:14;;;;;;;3.43;2.40;;;;;;;;;;5060914;28;20577;-73
2021/03/06 12:26:18;;;;;;;5.23;2.80;;;;;;;;;;5061215;28;20538;-73
2021/03/06 12:29:22;;;;;;;4.10;2.07;;;;;;;;;;5072902;28;20613;-73
2021/03/06 12:32:27;;;;;;;3.77;2.40;;;;;;;;;;5041222;28;20597;-73
2021/03/06 12:35:31;;;;;;;7.60;2.67;;;;;;;;;;5064204;28;21199;-74
2021/03/06 12:38:35;;;;;;;6.20;2.77;;;;;;;;;;5073392;28;21075;-73
2021/03/06 12:41:39;;;;;;;2.93;2.50;;;;;;;;;;5061893;28;20637;-80
2021/03/06 12:44:43;;;;;;;3.63;2.23;;;;;;;;;;5060282;28;20573;-73
2021/03/06 12:47:48;;;;;;;9.77;2.60;;;;;;;;;;5073140;28;20187;-73
2021/03/06 12:50:53;;;;;;;2.93;2.07;;;;;;;;;;5060425;28;20219;-72
2021/03/06 12:53:57;;;;;;;3.60;2.20;;;;;;;;;;5072855;28;20179;-72
2021/03/06 12:57:02;;;;;;;3.53;1.80;;;;;;;;;;5053139;28;20180;-72
2021/03/06 13:00:07;;;;;;;3.63;2.20;;;;;;;;;;5054267;28;20218;-72
2021/03/06 13:03:11;;;;;;;2.80;2.30;;;;;;;;;;5060607;28;20176;-73
2021/03/06 13:06:16;;;;;;;3.47;2.10;;;;;;;;;;5060375;28;20188;-73
2021/03/06 13:09:20;;;;;;;5.03;3.13;;;;;;;;;;5072433;28;20188;-72
2021/03/06 13:12:25;;;;;;;4.70;2.40;;;;;;;;;;5070297;28;20184;-73
2021/03/06 13:15:29;;;;;;;3.50;2.27;;;;;;;;;;5071693;28;20211;-73
2021/03/06 13:18:34;;;;;;;2.67;2.20;;;;;;;;;;5074596;28;20195;-72
2021/03/06 13:21:38;;;;;;;4.77;2.33;;;;;;;;;;5063923;28;20395;-72
2021/03/06 13:24:42;;;;;;;3.20;2.30;;;;;;;;;;5058752;28;20176;-72
2021/03/06 13:27:47;;;;;;;5.10;2.30;;;;;;;;;;5068088;28;20192;-72
2021/03/06 13:30:51;;;;;;;4.53;2.00;;;;;;;;;;5076012;28;20219;-73
2021/03/06 13:33:56;;;;;;;2.70;2.13;;;;;;;;;;5076388;28;20184;-73
2021/03/06 13:37:00;;;;;;;2.90;2.10;;;;;;;;;;5076370;28;20183;-72
2021/03/06 13:40:11;;;;;;;3.10;2.00;;;;;;;;;;5075982;28;20211;-73
2021/03/06 13:43:15;;;;;;;3.00;2.10;;;;;;;;;;5075951;28;20196;-72
2021/03/06 13:46:19;;;;;;;2.57;1.80;;;;;;;;;;5070971;28;20185;-72
2021/03/06 13:49:23;;;;;;;2.67;2.10;;;;;;;;;;5076006;28;20187;-72
2021/03/06 13:52:27;;;;;;;5.90;3.60;;;;;;;;;;5075909;28;20183;-73
2021/03/06 13:55:32;;;;;;;6.30;1.97;;;;;;;;;;5075665;28;20550;-72
2021/03/06 13:58:36;;;;;;;3.20;2.27;;;;;;;;;;5065067;28;20187;-72
2021/03/06 14:01:41;;;;;;;5.77;3.37;;;;;;;;;;5058487;28;20215;-72
2021/03/06 14:04:45;;;;;;;5.90;2.50;;;;;;;;;;5061249;28;20634;-73
2021/03/06 14:07:50;;;;;;;9.73;3.20;;;;;;;;;;5069012;28;20203;-73
2021/03/06 14:10:54;;;;;;;3.20;2.20;;;;;;;;;;5075834;28;20686;-73
2021/03/06 14:13:58;;;;;;;17.63;3.30;;;;;;;;;;5075433;28;20188;-73
2021/03/06 14:17:02;;;;;;;3.53;2.30;;;;;;;;;;5075683;28;20207;-73
2021/03/06 14:20:07;;;;;;;4.80;2.30;;;;;;;;;;5075783;28;20207;-72
2021/03/06 14:23:11;;;;;;;3.00;1.90;;;;;;;;;;5064660;28;20179;-73
2021/03/06 14:26:15;;;;;;;3.70;2.00;;;;;;;;;;5075978;28;20180;-73
2021/03/06 14:29:20;;;;;;;4.30;2.80;;;;;;;;;;5075224;28;20191;-72
2021/03/06 14:32:24;;;;;;;2.50;2.17;;;;;;;;;;5075139;28;20183;-72
2021/03/06 14:35:28;;;;;;;2.57;1.90;;;;;;;;;;5074283;28;20207;-72
2021/03/06 14:38:32;;;;;;;2.80;2.10;;;;;;;;;;5075630;28;20183;-73
2021/03/06 14:41:37;;;;;;;2.53;1.83;;;;;;;;;;5075100;28;20215;-72
2021/03/06 14:44:41;;;;;;;6.53;2.20;;;;;;;;;;5075258;28;20207;-72
2021/03/06 14:47:45;;;;;;;3.30;1.83;;;;;;;;;;5074123;28;20171;-72
2021/03/06 14:50:49;;;;;;;2.20;1.70;;;;;;;;;;5075446;28;20218;-73
2021/03/06 14:53:54;;;;;;;3.07;1.57;;;;;;;;;;5074284;28;20188;-72
2021/03/06 14:56:58;;;;;;;3.27;2.00;;;;;;;;;;5074392;28;20212;-73
2021/03/06 15:00:05;;;;;;;4.13;1.87;;;;;;;;;;5074949;28;20227;-72
2021/03/06 15:03:09;;;;;;;2.13;1.83;;;;;;;;;;5072573;28;20206;-73
2021/03/06 15:06:13;;;;;;;4.87;2.73;;;;;;;;;;5074634;28;20577;-72
2021/03/06 15:09:17;;;;;;;2.83;1.80;;;;;;;;;;5074348;28;20567;-73
2021/03/06 15:12:22;;;;;;;2.03;1.70;;;;;;;;;;5074901;28;20192;-72
2021/03/06 15:15:26;;;;;;;7.37;1.83;;;;;;;;;;5074500;28;20203;-72
2021/03/06 15:18:30;;;;;;;2.47;1.73;;;;;;;;;;5074893;28;20181;-73
2021/03/06 15:21:34;;;;;;;2.97;2.10;;;;;;;;;;5074362;28;20601;-72
2021/03/06 15:24:39;;;;;;;13.37;4.67;;;;;;;;;;5073574;28;20614;-73
2021/03/06 15:27:43;;;;;;;3.77;1.70;;;;;;;;;;5074391;28;20191;-72
2021/03/06 15:30:48;;;;;;;2.43;1.77;;;;;;;;;;5074877;28;20629;-74
2021/03/06 15:33:51;;;;;;;2.70;2.03;;;;;;;;;;5074642;28;20542;-73
2021/03/06 15:36:56;;;;;;;3.20;1.97;;;;;;;;;;5073933;28;20577;-72
2021/03/06 15:40:00;;;;;;;4.23;2.20;;;;;;;;;;5069755;28;20694;-72
2021/03/06 15:43:05;;;;;;;19.93;2.77;;;;;;;;;;5074228;28;20545;-73
2021/03/06 15:46:12;;;;;;;2.27;2.00;;;;;;;;;;5073457;28;20586;-72
2021/03/06 15:49:16;;;;;;;4.53;2.30;;;;;;;;;;5041753;28;20555;-73
2021/03/06 15:52:20;;;;;;;3.77;2.23;;;;;;;;;;5058698;28;20597;-72
2021/03/06 15:55:24;;;;;;;4.20;1.90;;;;;;;;;;5073487;28;20585;-72
2021/03/06 15:58:29;;;;;;;2.93;2.03;;;;;;;;;;5074080;28;20542;-73
2021/03/06 16:01:33;;;;;;;3.50;2.30;;;;;;;;;;5073834;28;20629;-73
2021/03/06 16:04:37;;;;;;;4.30;2.67;;;;;;;;;;5073326;28;21164;-72
2021/03/06 16:07:41;;;;;;;4.57;2.47;;;;;;;;;;5072906;28;20578;-72
2021/03/06 16:10:46;;;;;;;2.77;2.00;;;;;;;;;;5072834;28;20617;-73
2021/03/06 16:13:50;;;;;;;5.07;1.93;;;;;;;;;;5073136;28;20577;-72
2021/03/06 16:16:56;;;;;;;2.77;2.20;;;;;;;;;;5073371;28;20601;-72
2021/03/06 16:20:00;;;;;;;8.77;2.47;;;;;;;;;;5073579;28;20964;-73
2021/03/06 16:23:04;;;;;;;12.63;2.47;;;;;;;;;;5072887;28;21146;-72
2021/03/06 16:26:08;;;;;;;5.23;2.10;;;;;;;;;;5073502;28;21115;-72
2021/03/06 16:29:13;;;;;;;2.87;2.23;;;;;;;;;;5073635;28;20621;-73
2021/03/06 16:32:17;;;;;;;2.80;2.10;;;;;;;;;;5073070;28;21204;-72
2021/03/06 16:35:22;;;;;;;3.23;2.27;;;;;;;;;;5041016;28;20551;-72
2021/03/06 16:38:26;;;;;;;4.53;2.87;;;;;;;;;;5072825;28;20566;-72
2021/03/06 16:41:31;;;;;;;12.03;5.20;;;;;;;;;;5073162;28;20621;-73
2021/03/06 16:44:38;;;;;;;9.83;4.53;;;;;;;;;;5072562;28;20988;-72
2021/03/06 16:47:42;;;;;;;13.47;6.93;;;;;;;;;;5081715;22;20690;-69
2021/03/06 16:50:47;;;;;;;11.63;6.03;;;;;;;;;;5052943;28;20642;-69
2021/03/06 16:53:52;;;;;;;36.10;6.90;;;;;;;;;;5031843;28;21090;-70
2021/03/06 16:56:56;;;;;;;10.63;6.10;;;;;;;;;;5051304;28;21190;-69
2021/03/06 17:00:01;;;;;;;6.67;4.57;;;;;;;;;;5057063;28;20626;-70
2021/03/06 17:03:08;;;;;;;5.03;3.30;;;;;;;;;;5052166;28;20555;-70
2021/03/06 17:06:13;;;;;;;5.87;3.80;;;;;;;;;;5053111;28;21061;-70
2021/03/06 17:09:18;;;;;;;13.37;4.80;;;;;;;;;;5043732;28;20576;-69
2021/03/06 17:12:23;;;;;;;7.70;4.43;;;;;;;;;;5032942;28;21165;-69
2021/03/06 17:15:27;;;;;;;5.20;2.93;;;;;;;;;;5025361;28;20595;-69
2021/03/06 17:18:31;;;;;;;3.83;2.67;;;;;;;;;;5054013;28;21032;-70
2021/03/06 17:21:36;;;;;;;5.73;3.53;;;;;;;;;;5052924;28;20621;-70
2021/03/06 17:24:40;;;;;;;5.60;2.80;;;;;;;;;;5065675;28;20593;-70
2021/03/06 17:27:44;;;;;;;7.87;2.97;;;;;;;;;;5072193;28;20534;-70
2021/03/06 17:30:49;;;;;;;3.40;2.70;;;;;;;;;;5071506;28;20641;-69
2021/03/06 17:33:53;;;;;;;4.03;2.87;;;;;;;;;;5043591;28;20587;-69
2021/03/06 17:36:57;;;;;;;3.13;2.37;;;;;;;;;;5052412;28;21223;-70
2021/03/06 17:40:02;;;;;;;2.53;2.03;;;;;;;;;;5053683;28;20650;-69
2021/03/06 17:43:06;;;;;;;3.53;1.77;;;;;;;;;;5054638;28;21175;-70
2021/03/06 17:46:10;;;;;;;4.57;2.10;;;;;;;;;;5072140;28;20581;-70
2021/03/06 17:49:15;;;;;;;4.70;2.30;;;;;;;;;;5072424;28;20648;-70
2021/03/06 17:52:19;;;;;;;2.50;1.97;;;;;;;;;;5063042;28;20590;-69
2021/03/06 17:55:23;;;;;;;3.70;2.10;;;;;;;;;;5072291;28;20585;-70
2021/03/06 17:58:27;;;;;;;2.80;1.80;;;;;;;;;;5064631;28;21135;-71
2021/03/06 18:01:31;;;;;;;3.27;2.10;;;;;;;;;;5052157;28;20630;-70
2021/03/06 18:04:36;;;;;;;3.43;2.20;;;;;;;;;;5053616;28;20539;-70
2021/03/06 18:07:40;;;;;;;3.63;2.30;;;;;;;;;;5055835;28;20582;-69
2021/03/06 18:10:45;;;;;;;3.53;2.20;;;;;;;;;;5055147;28;20626;-70
2021/03/06 18:13:49;;;;;;;3.70;2.20;;;;;;;;;;5065711;28;20575;-69
2021/03/06 18:16:53;;;;;;;4.53;2.13;;;;;;;;;;5055019;28;20583;-70
2021/03/06 18:19:58;;;;;;;2.40;2.20;;;;;;;;;;5061178;28;20657;-70
2021/03/06 18:23:04;;;;;;;2.60;2.10;;;;;;;;;;5042410;28;20571;-69
2021/03/06 18:26:08;;;;;;;3.80;2.27;;;;;;;;;;5055396;28;20595;-69
2021/03/06 18:29:12;;;;;;;3.97;2.13;;;;;;;;;;5055681;28;20551;-70
2021/03/06 18:32:16;;;;;;;3.13;2.00;;;;;;;;;;5037942;28;20551;-70
2021/03/06 18:35:21;;;;;;;2.80;2.33;;;;;;;;;;5060753;28;20587;-69